CW6651 Weather Reports


Display with metric or nautical units.
time (UTC)temp
F
wind
direction
speed
MPH
gust
MPH
rain 1hr
in
rain 24hr
in
rain mn
in
humidity
%
barometer
mb
20190326181614 51 260 1.0 4.0 0.00 0.20 0.01 78 1019.4
20190326174546 50 214 1.0 4.0 0.00 0.20 0.01 82 1019.6
20190326173039 49 195 1.0 3.0 0.00 0.20 0.01 84 1019.8
20190326171607 48 107 0.0 3.0 0.00 0.20 0.01 84 1019.9
20190326170200 47 95 1.0 4.0 0.00 0.20 0.01 86 1019.8
20190326164542 47 148 0.0 4.0 0.00 0.20 0.01 86 1019.8
20190326163032 47 125 0.0 3.0 0.00 0.20 0.01 89 1019.8
20190326161605 47 266 1.0 5.0 0.00 0.20 0.01 89 1019.7
20190326160205 47 232 1.0 3.0 0.00 0.20 0.01 90 1019.7
20190326154504 47 283 0.0 3.0 0.00 0.20 0.01 95 1019.7
20190326151539 43 224 0.0 2.0 0.00 0.20 0.01 96 1019.6
20190326150132 43 243 1.0 3.0 0.00 0.20 0.01 96 1019.4
20190326144511 43 258 1.0 3.0 0.00 0.20 0.01 97 1019.1
20190326143019 43 259 0.0 2.0 0.00 0.20 0.01 98 1018.8
20190326141636 43 253 1.0 3.0 0.00 0.20 0.01 98 1018.6
20190326140143 42 270 0.0 2.0 0.00 0.20 0.01 99 1018.4
20190326134519 42 276 0.0 2.0 0.00 0.20 0.01 99 1018.2
20190326133019 42 238 1.0 2.0 0.00 0.20 0.01 99 1018.0
20190326131557 42 257 0.0 0.0 0.00 0.20 0.01 99 1017.8
20190326130130 42 256 1.0 2.0 0.00 0.20 0.01 99 1017.6
20190326124801 42 252 1.0 3.0 0.00 0.20 0.01 99 1017.3
20190326123001 42 248 0.0 2.0 0.00 0.20 0.01 99 1017.3
20190326121555 42 243 1.0 2.0 0.00 0.20 0.01 99 1017.0
20190326120109 42 250 1.0 3.0 0.00 0.20 0.01 99 1016.6
20190326113002 43 224 0.0 2.0 0.00 0.20 0.01 99 1016.1
20190326111550 43 232 0.0 2.0 0.00 0.20 0.01 99 1015.8
20190326110111 43 236 1.0 2.0 0.00 0.20 0.01 99 1015.6
20190326104631 43 214 0.0 3.0 0.00 0.20 0.01 98 1015.4
20190326101611 44 246 1.0 4.0 0.00 0.20 0.01 98 1015.0
20190326100143 44 209 2.0 4.0 0.00 0.20 0.01 98 1014.8
20190326094652 44 255 0.0 0.0 0.00 0.20 0.01 98 1014.4
20190326093303 44 231 0.0 0.0 0.00 0.20 0.01 98 1014.3
20190326091539 44 132 0.0 1.0 0.00 0.20 0.01 98 1014.2
20190326090105 45 229 0.0 2.0 0.00 0.20 0.01 98 1014.1
20190326083001 45 134 0.0 3.0 0.00 0.20 0.01 98 1014.1
20190326081538 45 113 0.0 0.0 0.00 0.20 0.01 98 1013.8
20190326080145 45 240 0.0 0.0 0.00 0.20 0.01 98 1013.7
20190326074502 45 238 0.0 0.0 0.00 0.20 0.01 98 1013.6
20190326071600 46 236 1.0 3.0 0.00 0.20 0.01 98 1013.5
20190326070213 46 276 1.0 2.0 0.00 0.20 0.01 98 1013.6
20190326064839 46 254 0.0 2.0 0.00 0.20 0.01 98 1013.6
20190326061641 46 246 0.0 0.0 0.01 0.20 0.01 98 1013.5
20190326060111 46 221 0.0 0.0 0.01 0.20 0.01 98 1013.5
20190326054641 46 193 0.0 1.0 0.01 0.20 0.01 98 1013.5
20190326053153 46 193 0.0 2.0 0.01 0.20 0.01 98 1013.2
20190326051550 46 212 0.0 1.0 0.00 0.19 0.00 97 1013.0
20190326050137 46 213 0.0 2.0 0.00 0.19 0.00 97 1012.8
20190326044608 46 219 0.0 1.0 0.00 0.19 0.00 97 1012.6
20190326043220 46 4 0.0 1.0 0.00 0.19 0.00 97 1012.5
20190326041529 46 239 0.0 2.0 0.00 0.19 0.00 98 1012.5
20190326040119 47 264 1.0 2.0 0.00 0.19 0.19 98 1012.4
20190326034645 47 282 2.0 3.0 0.00 0.19 0.19 98 1012.4
20190326033128 47 270 0.0 2.0 0.00 0.19 0.19 98 1012.2
20190326031724 46 271 0.0 0.0 0.00 0.19 0.19 98 1012.0
20190326030029 46 271 0.0 0.0 0.00 0.19 0.19 98 1011.8
20190326024638 46 271 0.0 0.0 0.00 0.19 0.19 98 1011.9
20190326023103 46 271 0.0 0.0 0.00 0.19 0.19 98 1011.8
20190326021643 46 271 0.0 0.0 0.00 0.19 0.19 97 1011.8
20190326020004 47 271 0.0 0.0 0.00 0.19 0.19 97 1011.7
20190326014547 47 271 0.0 0.0 0.00 0.19 0.19 97 1011.7
20190326013058 47 265 0.0 0.0 0.01 0.19 0.19 97 1011.7
20190326011714 47 248 0.0 0.0 0.01 0.19 0.19 97 1012.0
20190326010013 47 248 0.0 0.0 0.01 0.19 0.19 97 1012.2
20190326004615 47 248 0.0 0.0 0.01 0.19 0.19 97 1012.1
20190326003051 47 248 0.0 0.0 0.00 0.18 0.18 97 1012.3
20190326001712 47 248 0.0 0.0 0.01 0.18 0.18 96 1012.1
20190326000036 47 248 0.0 0.0 0.02 0.18 0.18 96 1011.7
20190325234625 48 248 0.0 0.0 0.04 0.18 0.18 97 1011.5
20190325233051 48 248 0.0 0.0 0.08 0.18 0.18 96 1011.7
20190325231612 48 248 0.0 0.0 0.08 0.17 0.17 96 1012.0
20190325230012 48 248 0.0 2.0 0.09 0.16 0.16 95 1011.7
20190325224624 49 247 1.0 4.0 0.07 0.14 0.14 95 1011.7
20190325223105 50 5 0.0 1.0 0.04 0.10 0.10 96 1011.5
20190325221636 50 104 0.0 1.0 0.04 0.09 0.09 96 1011.3
20190325220003 50 134 0.0 2.0 0.03 0.07 0.07 95 1011.1
20190325200053 53 196 0.0 5.0 0.01 0.03 0.03 84 1011.8
20190325194625 53 122 1.0 4.0 0.01 0.03 0.03 84 1011.7
20190325193105 53 97 0.0 4.0 0.01 0.03 0.03 84 1011.9
20190325191644 54 139 0.0 1.0 0.02 0.02 0.03 87 1012.2
20190325190101 54 19 0.0 1.0 0.02 0.02 0.02 83 1012.4
20190325184641 54 101 0.0 1.0 0.02 0.02 0.02 79 1012.3
20190325183156 55 198 0.0 1.0 0.02 0.02 0.02 77 1012.6